sensor_id;sensor_type;location;lat;lon;timestamp;pressure;altitude;pressure_sealevel;temperature;humidity
50632;BME280;49583;45.590;-122.498;2023-02-17T00:01:14;101810.25;;;10.41;49.55
50632;BME280;49583;45.590;-122.498;2023-02-17T00:03:28;101806.36;;;10.35;49.56
50632;BME280;49583;45.590;-122.498;2023-02-17T00:05:42;101810.84;;;10.34;49.71
50632;BME280;49583;45.590;-122.498;2023-02-17T00:07:57;101813.16;;;10.33;49.88
50632;BME280;49583;45.590;-122.498;2023-02-17T00:10:13;101812.64;;;10.32;49.64
50632;BME280;49583;45.590;-122.498;2023-02-17T00:12:27;101810.39;;;10.31;49.61
50632;BME280;49583;45.590;-122.498;2023-02-17T00:14:41;101805.20;;;10.30;49.73
50632;BME280;49583;45.590;-122.498;2023-02-17T00:16:54;101804.77;;;10.29;49.67
50632;BME280;49583;45.590;-122.498;2023-02-17T00:19:08;101802.42;;;10.29;49.62
50632;BME280;49583;45.590;-122.498;2023-02-17T00:21:35;101805.60;;;10.28;49.84
50632;BME280;49583;45.590;-122.498;2023-02-17T00:23:49;101807.76;;;10.27;49.77
50632;BME280;49583;45.590;-122.498;2023-02-17T00:26:06;101810.84;;;10.26;49.86
50632;BME280;49583;45.590;-122.498;2023-02-17T00:28:21;101811.30;;;10.24;49.56
50632;BME280;49583;45.590;-122.498;2023-02-17T00:30:34;101808.35;;;10.23;49.70
50632;BME280;49583;45.590;-122.498;2023-02-17T00:32:49;101805.21;;;10.20;49.70
50632;BME280;49583;45.590;-122.498;2023-02-17T00:35:05;101805.37;;;10.19;49.56
50632;BME280;49583;45.590;-122.498;2023-02-17T00:37:23;101806.46;;;10.17;49.39
50632;BME280;49583;45.590;-122.498;2023-02-17T00:39:36;101808.95;;;10.16;49.63
50632;BME280;49583;45.590;-122.498;2023-02-17T00:41:50;101809.55;;;10.15;49.46
50632;BME280;49583;45.590;-122.498;2023-02-17T00:44:04;101809.34;;;10.13;49.33
50632;BME280;49583;45.590;-122.498;2023-02-17T00:46:17;101808.44;;;10.12;49.59
50632;BME280;49583;45.590;-122.498;2023-02-17T00:48:33;101809.73;;;10.11;49.79
50632;BME280;49583;45.590;-122.498;2023-02-17T00:50:46;101813.90;;;10.10;49.81
50632;BME280;49583;45.590;-122.498;2023-02-17T00:53:01;101810.79;;;10.09;49.99
50632;BME280;49583;45.590;-122.498;2023-02-17T00:55:14;101806.61;;;10.06;50.09
50632;BME280;49583;45.590;-122.498;2023-02-17T00:57:27;101807.95;;;10.06;50.01
50632;BME280;49583;45.590;-122.498;2023-02-17T00:59:43;101806.11;;;10.05;50.15
50632;BME280;49583;45.590;-122.498;2023-02-17T01:01:56;101808.49;;;10.04;50.01
50632;BME280;49583;45.590;-122.498;2023-02-17T01:04:10;101811.63;;;10.02;49.89
50632;BME280;49583;45.590;-122.498;2023-02-17T01:06:26;101808.95;;;10.00;49.99
50632;BME280;49583;45.590;-122.498;2023-02-17T01:08:39;101808.51;;;9.99;50.26
50632;BME280;49583;45.590;-122.498;2023-02-17T01:10:52;101808.92;;;9.97;50.03
50632;BME280;49583;45.590;-122.498;2023-02-17T01:13:05;101807.91;;;9.96;50.26
50632;BME280;49583;45.590;-122.498;2023-02-17T01:15:19;101809.27;;;9.95;50.26
50632;BME280;49583;45.590;-122.498;2023-02-17T01:17:33;101808.72;;;9.93;50.55
50632;BME280;49583;45.590;-122.498;2023-02-17T01:19:47;101810.91;;;9.91;50.26
50632;BME280;49583;45.590;-122.498;2023-02-17T01:22:01;101810.52;;;9.89;50.12
50632;BME280;49583;45.590;-122.498;2023-02-17T01:24:18;101813.09;;;9.87;50.15
50632;BME280;49583;45.590;-122.498;2023-02-17T01:26:33;101811.89;;;9.83;50.05
50632;BME280;49583;45.590;-122.498;2023-02-17T01:28:47;101808.58;;;9.78;49.89
50632;BME280;49583;45.590;-122.498;2023-02-17T01:31:07;101806.54;;;9.74;50.24
50632;BME280;49583;45.590;-122.498;2023-02-17T01:33:23;101802.36;;;9.70;50.29
50632;BME280;49583;45.590;-122.498;2023-02-17T01:35:37;101806.91;;;9.69;49.99
50632;BME280;49583;45.590;-122.498;2023-02-17T01:37:51;101806.98;;;9.66;50.18
50632;BME280;49583;45.590;-122.498;2023-02-17T01:40:06;101808.36;;;9.64;50.08
50632;BME280;49583;45.590;-122.498;2023-02-17T01:42:20;101808.19;;;9.62;50.14
50632;BME280;49583;45.590;-122.498;2023-02-17T01:44:34;101805.30;;;9.60;50.11
50632;BME280;49583;45.590;-122.498;2023-02-17T01:46:48;101806.02;;;9.59;50.33
50632;BME280;49583;45.590;-122.498;2023-02-17T01:49:06;101806.71;;;9.56;50.34
50632;BME280;49583;45.590;-122.498;2023-02-17T01:51:30;101808.17;;;9.54;50.24
50632;BME280;49583;45.590;-122.498;2023-02-17T01:53:51;101810.05;;;9.53;50.25
50632;BME280;49583;45.590;-122.498;2023-02-17T01:56:07;101811.23;;;9.51;50.59
50632;BME280;49583;45.590;-122.498;2023-02-17T01:58:22;101812.80;;;9.49;50.49
50632;BME280;49583;45.590;-122.498;2023-02-17T02:00:39;101810.16;;;9.48;50.66
50632;BME280;49583;45.590;-122.498;2023-02-17T02:02:53;101813.53;;;9.47;50.85
50632;BME280;49583;45.590;-122.498;2023-02-17T02:05:09;101815.95;;;9.45;50.99
50632;BME280;49583;45.590;-122.498;2023-02-17T02:07:29;101818.19;;;9.42;51.47
50632;BME280;49583;45.590;-122.498;2023-02-17T02:09:48;101819.14;;;9.39;51.40
50632;BME280;49583;45.590;-122.498;2023-02-17T02:12:13;101819.14;;;9.38;51.30
50632;BME280;49583;45.590;-122.498;2023-02-17T02:14:28;101819.67;;;9.35;51.63
50632;BME280;49583;45.590;-122.498;2023-02-17T02:16:44;101822.52;;;9.33;51.39
50632;BME280;49583;45.590;-122.498;2023-02-17T02:19:09;101826.84;;;9.30;51.53
50632;BME280;49583;45.590;-122.498;2023-02-17T02:24:38;101838.05;;;9.23;51.70
50632;BME280;49583;45.590;-122.498;2023-02-17T02:32:41;101834.21;;;9.18;52.08
50632;BME280;49583;45.590;-122.498;2023-02-17T02:35:00;101831.27;;;9.15;52.23
50632;BME280;49583;45.590;-122.498;2023-02-17T02:37:20;101827.02;;;9.12;52.41
50632;BME280;49583;45.590;-122.498;2023-02-17T02:39:41;101831.45;;;9.10;52.17
50632;BME280;49583;45.590;-122.498;2023-02-17T02:41:58;101831.71;;;9.06;52.31
50632;BME280;49583;45.590;-122.498;2023-02-17T02:44:16;101829.38;;;9.03;52.52
50632;BME280;49583;45.590;-122.498;2023-02-17T02:46:30;101827.38;;;9.00;52.22
50632;BME280;49583;45.590;-122.498;2023-02-17T02:48:44;101828.64;;;8.97;52.70
50632;BME280;49583;45.590;-122.498;2023-02-17T02:51:17;101834.28;;;8.95;52.65
50632;BME280;49583;45.590;-122.498;2023-02-17T02:54:00;101834.73;;;8.91;52.67
50632;BME280;49583;45.590;-122.498;2023-02-17T02:56:25;101837.88;;;8.87;53.09
50632;BME280;49583;45.590;-122.498;2023-02-17T02:58:44;101844.73;;;8.84;53.10
50632;BME280;49583;45.590;-122.498;2023-02-17T03:01:05;101853.84;;;8.82;53.15
50632;BME280;49583;45.590;-122.498;2023-02-17T03:03:27;101856.05;;;8.79;53.35
50632;BME280;49583;45.590;-122.498;2023-02-17T03:05:51;101858.35;;;8.77;53.61
50632;BME280;49583;45.590;-122.498;2023-02-17T03:08:10;101859.93;;;8.75;53.59
50632;BME280;49583;45.590;-122.498;2023-02-17T03:10:24;101861.03;;;8.74;53.65
50632;BME280;49583;45.590;-122.498;2023-02-17T03:12:40;101862.53;;;8.72;53.61
50632;BME280;49583;45.590;-122.498;2023-02-17T03:14:57;101866.55;;;8.71;53.80
50632;BME280;49583;45.590;-122.498;2023-02-17T03:17:13;101866.34;;;8.69;53.74
50632;BME280;49583;45.590;-122.498;2023-02-17T03:19:30;101872.77;;;8.66;53.59
50632;BME280;49583;45.590;-122.498;2023-02-17T03:21:46;101873.40;;;8.63;53.69
50632;BME280;49583;45.590;-122.498;2023-02-17T03:24:01;101874.92;;;8.59;53.86
50632;BME280;49583;45.590;-122.498;2023-02-17T03:26:16;101877.55;;;8.56;53.86
50632;BME280;49583;45.590;-122.498;2023-02-17T03:28:28;101882.21;;;8.52;53.69
50632;BME280;49583;45.590;-122.498;2023-02-17T03:30:42;101883.89;;;8.49;53.94
50632;BME280;49583;45.590;-122.498;2023-02-17T03:32:55;101883.88;;;8.47;53.91
50632;BME280;49583;45.590;-122.498;2023-02-17T03:35:10;101888.58;;;8.45;54.09
50632;BME280;49583;45.590;-122.498;2023-02-17T03:37:24;101891.92;;;8.43;54.10
50632;BME280;49583;45.590;-122.498;2023-02-17T03:39:37;101894.39;;;8.41;54.31
50632;BME280;49583;45.590;-122.498;2023-02-17T03:41:50;101896.29;;;8.37;54.40
50632;BME280;49583;45.590;-122.498;2023-02-17T03:44:03;101898.23;;;8.34;54.37
50632;BME280;49583;45.590;-122.498;2023-02-17T03:46:18;101896.77;;;8.31;54.56
50632;BME280;49583;45.590;-122.498;2023-02-17T03:48:32;101897.06;;;8.28;54.43
50632;BME280;49583;45.590;-122.498;2023-02-17T03:50:45;101902.37;;;8.25;54.44
50632;BME280;49583;45.590;-122.498;2023-02-17T03:52:59;101905.52;;;8.21;54.60
50632;BME280;49583;45.590;-122.498;2023-02-17T03:55:12;101904.87;;;8.18;54.68
50632;BME280;49583;45.590;-122.498;2023-02-17T03:57:25;101906.16;;;8.14;54.64
50632;BME280;49583;45.590;-122.498;2023-02-17T03:59:39;101900.67;;;8.08;54.60
50632;BME280;49583;45.590;-122.498;2023-02-17T04:01:52;101906.59;;;8.05;54.68
50632;BME280;49583;45.590;-122.498;2023-02-17T04:04:06;101903.94;;;8.01;54.84
50632;BME280;49583;45.590;-122.498;2023-02-17T04:06:20;101898.09;;;7.97;55.01
50632;BME280;49583;45.590;-122.498;2023-02-17T04:08:33;101898.44;;;7.94;55.21
50632;BME280;49583;45.590;-122.498;2023-02-17T04:10:46;101896.62;;;7.90;55.28
50632;BME280;49583;45.590;-122.498;2023-02-17T04:13:02;101903.45;;;7.85;55.29
50632;BME280;49583;45.590;-122.498;2023-02-17T04:15:15;101903.77;;;7.79;55.43
50632;BME280;49583;45.590;-122.498;2023-02-17T04:17:27;101912.27;;;7.75;55.59
50632;BME280;49583;45.590;-122.498;2023-02-17T04:19:40;101914.92;;;7.69;55.63
50632;BME280;49583;45.590;-122.498;2023-02-17T04:21:53;101918.23;;;7.62;55.58
50632;BME280;49583;45.590;-122.498;2023-02-17T04:24:07;101923.94;;;7.57;55.49
50632;BME280;49583;45.590;-122.498;2023-02-17T04:26:21;101920.36;;;7.51;55.68
50632;BME280;49583;45.590;-122.498;2023-02-17T04:28:36;101923.04;;;7.46;55.75
50632;BME280;49583;45.590;-122.498;2023-02-17T04:30:51;101923.00;;;7.41;55.87
50632;BME280;49583;45.590;-122.498;2023-02-17T04:33:05;101921.34;;;7.35;55.88
50632;BME280;49583;45.590;-122.498;2023-02-17T04:35:19;101922.45;;;7.27;55.95
50632;BME280;49583;45.590;-122.498;2023-02-17T04:37:34;101927.08;;;7.19;55.95
50632;BME280;49583;45.590;-122.498;2023-02-17T04:39:48;101927.98;;;7.08;55.99
50632;BME280;49583;45.590;-122.498;2023-02-17T04:42:01;101926.63;;;7.00;56.16
50632;BME280;49583;45.590;-122.498;2023-02-17T04:44:15;101931.70;;;6.92;56.25
50632;BME280;49583;45.590;-122.498;2023-02-17T04:46:31;101934.61;;;6.85;56.49
50632;BME280;49583;45.590;-122.498;2023-02-17T04:48:45;101935.69;;;6.78;56.51
50632;BME280;49583;45.590;-122.498;2023-02-17T04:50:58;101937.96;;;6.70;56.79
50632;BME280;49583;45.590;-122.498;2023-02-17T04:53:11;101941.35;;;6.64;57.00
50632;BME280;49583;45.590;-122.498;2023-02-17T04:55:25;101945.16;;;6.58;57.12
50632;BME280;49583;45.590;-122.498;2023-02-17T04:57:40;101946.20;;;6.55;57.33
50632;BME280;49583;45.590;-122.498;2023-02-17T04:59:52;101948.88;;;6.51;57.50
50632;BME280;49583;45.590;-122.498;2023-02-17T05:02:05;101953.20;;;6.48;57.64
50632;BME280;49583;45.590;-122.498;2023-02-17T05:04:19;101955.04;;;6.45;57.69
50632;BME280;49583;45.590;-122.498;2023-02-17T05:06:32;101950.71;;;6.43;57.88
50632;BME280;49583;45.590;-122.498;2023-02-17T05:08:45;101949.02;;;6.42;58.04
50632;BME280;49583;45.590;-122.498;2023-02-17T05:11:00;101946.43;;;6.40;58.21
50632;BME280;49583;45.590;-122.498;2023-02-17T05:13:14;101939.70;;;6.38;58.51
50632;BME280;49583;45.590;-122.498;2023-02-17T05:15:28;101944.74;;;6.37;58.91
50632;BME280;49583;45.590;-122.498;2023-02-17T05:17:44;101942.96;;;6.34;58.71
50632;BME280;49583;45.590;-122.498;2023-02-17T05:19:57;101944.65;;;6.30;58.91
50632;BME280;49583;45.590;-122.498;2023-02-17T05:22:10;101948.08;;;6.24;58.99
50632;BME280;49583;45.590;-122.498;2023-02-17T05:24:24;101950.15;;;6.20;59.31
50632;BME280;49583;45.590;-122.498;2023-02-17T05:26:37;101949.94;;;6.18;59.28
50632;BME280;49583;45.590;-122.498;2023-02-17T05:28:50;101948.13;;;6.15;59.18
50632;BME280;49583;45.590;-122.498;2023-02-17T05:31:04;101948.41;;;6.12;59.32
50632;BME280;49583;45.590;-122.498;2023-02-17T05:33:18;101942.70;;;6.08;59.43
50632;BME280;49583;45.590;-122.498;2023-02-17T05:35:34;101939.25;;;6.06;59.58
50632;BME280;49583;45.590;-122.498;2023-02-17T05:37:48;101943.84;;;6.03;59.47
50632;BME280;49583;45.590;-122.498;2023-02-17T05:40:02;101943.98;;;6.00;59.73
50632;BME280;49583;45.590;-122.498;2023-02-17T05:42:14;101949.63;;;5.97;59.58
50632;BME280;49583;45.590;-122.498;2023-02-17T05:44:27;101950.81;;;5.97;59.56
50632;BME280;49583;45.590;-122.498;2023-02-17T05:46:41;101946.42;;;5.97;59.79
50632;BME280;49583;45.590;-122.498;2023-02-17T05:48:55;101947.89;;;5.97;59.78
50632;BME280;49583;45.590;-122.498;2023-02-17T05:51:08;101950.65;;;5.97;59.88
50632;BME280;49583;45.590;-122.498;2023-02-17T05:53:23;101946.92;;;5.96;60.02
50632;BME280;49583;45.590;-122.498;2023-02-17T05:55:37;101950.08;;;5.96;59.90
50632;BME280;49583;45.590;-122.498;2023-02-17T05:57:50;101951.63;;;5.97;59.96
50632;BME280;49583;45.590;-122.498;2023-02-17T06:00:03;101949.73;;;5.98;60.02
50632;BME280;49583;45.590;-122.498;2023-02-17T06:02:25;101951.10;;;6.00;60.24
50632;BME280;49583;45.590;-122.498;2023-02-17T06:04:38;101951.70;;;6.00;60.30
50632;BME280;49583;45.590;-122.498;2023-02-17T06:06:51;101949.34;;;6.01;60.47
50632;BME280;49583;45.590;-122.498;2023-02-17T06:09:05;101952.83;;;6.04;60.66
50632;BME280;49583;45.590;-122.498;2023-02-17T06:11:18;101952.27;;;6.05;60.71
50632;BME280;49583;45.590;-122.498;2023-02-17T06:13:32;101949.68;;;6.07;60.92
50632;BME280;49583;45.590;-122.498;2023-02-17T06:15:47;101951.95;;;6.07;60.79
50632;BME280;49583;45.590;-122.498;2023-02-17T06:18:02;101951.41;;;6.07;61.30
50632;BME280;49583;45.590;-122.498;2023-02-17T06:20:16;101946.65;;;6.06;61.13
50632;BME280;49583;45.590;-122.498;2023-02-17T06:22:29;101950.08;;;6.05;61.23
50632;BME280;49583;45.590;-122.498;2023-02-17T06:24:42;101947.46;;;6.04;61.28
50632;BME280;49583;45.590;-122.498;2023-02-17T06:26:55;101946.58;;;6.01;61.62
50632;BME280;49583;45.590;-122.498;2023-02-17T06:29:08;101940.41;;;5.99;61.51
50632;BME280;49583;45.590;-122.498;2023-02-17T06:31:22;101944.06;;;5.98;61.66
50632;BME280;49583;45.590;-122.498;2023-02-17T06:33:36;101948.33;;;5.96;61.77
50632;BME280;49583;45.590;-122.498;2023-02-17T06:35:53;101945.83;;;5.94;62.04
50632;BME280;49583;45.590;-122.498;2023-02-17T06:38:07;101949.70;;;5.93;62.06
50632;BME280;49583;45.590;-122.498;2023-02-17T06:40:21;101947.54;;;5.92;62.19
50632;BME280;49583;45.590;-122.498;2023-02-17T06:42:37;101952.19;;;5.90;62.43
50632;BME280;49583;45.590;-122.498;2023-02-17T06:44:50;101954.35;;;5.86;62.48
50632;BME280;49583;45.590;-122.498;2023-02-17T06:47:03;101963.37;;;5.82;62.88
50632;BME280;49583;45.590;-122.498;2023-02-17T06:49:17;101966.57;;;5.76;62.91
50632;BME280;49583;45.590;-122.498;2023-02-17T06:51:30;101970.58;;;5.73;63.18
50632;BME280;49583;45.590;-122.498;2023-02-17T06:53:44;101970.14;;;5.70;63.15
50632;BME280;49583;45.590;-122.498;2023-02-17T06:55:57;101972.71;;;5.68;63.24
50632;BME280;49583;45.590;-122.498;2023-02-17T06:58:10;101980.35;;;5.67;63.35
50632;BME280;49583;45.590;-122.498;2023-02-17T07:00:24;101984.29;;;5.65;63.59
50632;BME280;49583;45.590;-122.498;2023-02-17T07:02:38;101985.75;;;5.62;63.72
50632;BME280;49583;45.590;-122.498;2023-02-17T07:04:53;101981.23;;;5.58;63.47
50632;BME280;49583;45.590;-122.498;2023-02-17T07:07:07;101985.06;;;5.57;63.64
50632;BME280;49583;45.590;-122.498;2023-02-17T07:09:21;101983.19;;;5.56;63.96
50632;BME280;49583;45.590;-122.498;2023-02-17T07:11:34;101978.71;;;5.51;63.88
50632;BME280;49583;45.590;-122.498;2023-02-17T07:13:48;101977.29;;;5.46;63.93
50632;BME280;49583;45.590;-122.498;2023-02-17T07:16:02;101974.36;;;5.41;63.85
50632;BME280;49583;45.590;-122.498;2023-02-17T07:18:16;101976.09;;;5.38;64.04
50632;BME280;49583;45.590;-122.498;2023-02-17T07:20:29;101973.13;;;5.35;63.88
50632;BME280;49583;45.590;-122.498;2023-02-17T07:22:43;101976.20;;;5.33;63.98
50632;BME280;49583;45.590;-122.498;2023-02-17T07:24:56;101974.93;;;5.34;63.96
50632;BME280;49583;45.590;-122.498;2023-02-17T07:27:10;101973.12;;;5.35;63.96
50632;BME280;49583;45.590;-122.498;2023-02-17T07:29:23;101976.00;;;5.35;64.10
50632;BME280;49583;45.590;-122.498;2023-02-17T07:31:38;101978.61;;;5.36;64.09
50632;BME280;49583;45.590;-122.498;2023-02-17T07:33:52;101978.39;;;5.36;64.32
50632;BME280;49583;45.590;-122.498;2023-02-17T07:36:11;101979.05;;;5.35;64.22
50632;BME280;49583;45.590;-122.498;2023-02-17T07:38:25;101980.08;;;5.35;64.02
50632;BME280;49583;45.590;-122.498;2023-02-17T07:40:40;101984.59;;;5.32;64.23
50632;BME280;49583;45.590;-122.498;2023-02-17T07:42:55;101984.66;;;5.30;64.14
50632;BME280;49583;45.590;-122.498;2023-02-17T07:45:11;101983.31;;;5.28;63.96
50632;BME280;49583;45.590;-122.498;2023-02-17T07:47:25;101982.70;;;5.26;64.39
50632;BME280;49583;45.590;-122.498;2023-02-17T07:49:38;101982.09;;;5.24;64.28
50632;BME280;49583;45.590;-122.498;2023-02-17T07:51:52;101982.66;;;5.21;64.30
50632;BME280;49583;45.590;-122.498;2023-02-17T07:54:06;101982.50;;;5.18;64.10
50632;BME280;49583;45.590;-122.498;2023-02-17T07:56:21;101987.17;;;5.17;64.05
50632;BME280;49583;45.590;-122.498;2023-02-17T07:58:37;101988.61;;;5.15;64.16
50632;BME280;49583;45.590;-122.498;2023-02-17T08:00:51;101989.85;;;5.15;64.32
50632;BME280;49583;45.590;-122.498;2023-02-17T08:03:05;101988.13;;;5.15;64.22
50632;BME280;49583;45.590;-122.498;2023-02-17T08:05:20;101992.75;;;5.13;64.24
50632;BME280;49583;45.590;-122.498;2023-02-17T08:07:33;102000.25;;;5.13;64.16
50632;BME280;49583;45.590;-122.498;2023-02-17T08:09:47;101994.66;;;5.12;64.52
50632;BME280;49583;45.590;-122.498;2023-02-17T08:12:19;101999.74;;;5.11;64.30
50632;BME280;49583;45.590;-122.498;2023-02-17T08:14:51;102005.16;;;5.07;64.19
50632;BME280;49583;45.590;-122.498;2023-02-17T08:17:04;102002.91;;;5.03;64.19
50632;BME280;49583;45.590;-122.498;2023-02-17T08:19:18;102000.67;;;5.01;64.40
50632;BME280;49583;45.590;-122.498;2023-02-17T08:21:31;102006.35;;;4.98;64.64
50632;BME280;49583;45.590;-122.498;2023-02-17T08:23:45;102005.11;;;4.94;64.45
50632;BME280;49583;45.590;-122.498;2023-02-17T08:26:01;102004.26;;;4.91;64.53
50632;BME280;49583;45.590;-122.498;2023-02-17T08:28:14;102009.18;;;4.88;64.46
50632;BME280;49583;45.590;-122.498;2023-02-17T08:30:28;102006.73;;;4.84;64.62
50632;BME280;49583;45.590;-122.498;2023-02-17T08:32:43;102012.01;;;4.83;64.43
50632;BME280;49583;45.590;-122.498;2023-02-17T08:34:59;102012.50;;;4.82;64.63
50632;BME280;49583;45.590;-122.498;2023-02-17T08:37:13;102014.34;;;4.83;64.66
50632;BME280;49583;45.590;-122.498;2023-02-17T08:39:26;102016.39;;;4.84;64.62
50632;BME280;49583;45.590;-122.498;2023-02-17T08:41:40;102016.81;;;4.86;64.51
50632;BME280;49583;45.590;-122.498;2023-02-17T08:43:54;102023.85;;;4.87;64.69
50632;BME280;49583;45.590;-122.498;2023-02-17T08:46:11;102024.95;;;4.90;64.72
50632;BME280;49583;45.590;-122.498;2023-02-17T08:48:25;102024.06;;;4.92;64.53
50632;BME280;49583;45.590;-122.498;2023-02-17T08:50:38;102024.11;;;4.94;64.66
50632;BME280;49583;45.590;-122.498;2023-02-17T08:52:51;102026.49;;;4.96;64.56
50632;BME280;49583;45.590;-122.498;2023-02-17T08:55:05;102024.97;;;4.98;64.25
50632;BME280;49583;45.590;-122.498;2023-02-17T08:57:18;102023.72;;;4.99;64.46
50632;BME280;49583;45.590;-122.498;2023-02-17T08:59:32;102025.13;;;4.99;64.60
50632;BME280;49583;45.590;-122.498;2023-02-17T09:01:45;102020.95;;;4.99;64.58
50632;BME280;49583;45.590;-122.498;2023-02-17T09:03:59;102026.70;;;4.99;64.44
50632;BME280;49583;45.590;-122.498;2023-02-17T09:06:13;102029.56;;;5.01;64.57
50632;BME280;49583;45.590;-122.498;2023-02-17T09:08:28;102023.58;;;5.01;64.62
50632;BME280;49583;45.590;-122.498;2023-02-17T09:10:41;102025.23;;;5.04;64.44
50632;BME280;49583;45.590;-122.498;2023-02-17T09:12:54;102027.48;;;5.06;64.32
50632;BME280;49583;45.590;-122.498;2023-02-17T09:15:08;102029.11;;;5.07;64.47
50632;BME280;49583;45.590;-122.498;2023-02-17T09:17:22;102028.34;;;5.08;64.42
50632;BME280;49583;45.590;-122.498;2023-02-17T09:19:36;102029.36;;;5.09;64.40
50632;BME280;49583;45.590;-122.498;2023-02-17T09:21:52;102024.80;;;5.10;64.39
50632;BME280;49583;45.590;-122.498;2023-02-17T09:24:06;102022.95;;;5.09;64.40
50632;BME280;49583;45.590;-122.498;2023-02-17T09:26:20;102021.50;;;5.08;64.35
50632;BME280;49583;45.590;-122.498;2023-02-17T09:28:35;102019.16;;;5.08;64.31
50632;BME280;49583;45.590;-122.498;2023-02-17T09:30:49;102019.55;;;5.07;64.39
50632;BME280;49583;45.590;-122.498;2023-02-17T09:33:02;102020.76;;;5.06;64.29
50632;BME280;49583;45.590;-122.498;2023-02-17T09:35:17;102019.95;;;5.04;64.22
50632;BME280;49583;45.590;-122.498;2023-02-17T09:37:31;102016.85;;;5.04;64.52
50632;BME280;49583;45.590;-122.498;2023-02-17T09:39:44;102018.77;;;5.04;64.15
50632;BME280;49583;45.590;-122.498;2023-02-17T09:41:58;102023.05;;;5.04;64.42
50632;BME280;49583;45.590;-122.498;2023-02-17T09:44:19;102027.31;;;5.03;64.16
50632;BME280;49583;45.590;-122.498;2023-02-17T09:46:38;102024.02;;;5.02;64.15
50632;BME280;49583;45.590;-122.498;2023-02-17T09:49:13;102021.91;;;5.01;64.48
50632;BME280;49583;45.590;-122.498;2023-02-17T09:51:32;102023.05;;;5.00;64.23
50632;BME280;49583;45.590;-122.498;2023-02-17T09:53:51;102023.38;;;4.99;64.10
50632;BME280;49583;45.590;-122.498;2023-02-17T09:56:10;102019.64;;;4.99;64.33
50632;BME280;49583;45.590;-122.498;2023-02-17T09:58:30;102022.95;;;4.99;64.27
50632;BME280;49583;45.590;-122.498;2023-02-17T10:00:49;102025.46;;;4.98;64.06
50632;BME280;49583;45.590;-122.498;2023-02-17T10:03:07;102028.85;;;4.96;64.13
50632;BME280;49583;45.590;-122.498;2023-02-17T10:05:33;102030.73;;;4.95;63.84
50632;BME280;49583;45.590;-122.498;2023-02-17T10:07:51;102028.89;;;4.93;64.15
50632;BME280;49583;45.590;-122.498;2023-02-17T10:10:09;102029.59;;;4.94;63.87
50632;BME280;49583;45.590;-122.498;2023-02-17T10:12:25;102030.23;;;4.94;64.11
50632;BME280;49583;45.590;-122.498;2023-02-17T10:14:47;102032.75;;;4.96;64.01
50632;BME280;49583;45.590;-122.498;2023-02-17T10:17:05;102033.33;;;4.98;64.00
50632;BME280;49583;45.590;-122.498;2023-02-17T10:19:24;102032.94;;;5.00;63.74
50632;BME280;49583;45.590;-122.498;2023-02-17T10:21:43;102030.54;;;5.02;64.13
50632;BME280;49583;45.590;-122.498;2023-02-17T10:23:58;102026.63;;;5.04;63.82
50632;BME280;49583;45.590;-122.498;2023-02-17T10:26:21;102030.90;;;5.07;63.99
50632;BME280;49583;45.590;-122.498;2023-02-17T10:28:46;102034.90;;;5.10;64.17
50632;BME280;49583;45.590;-122.498;2023-02-17T10:31:04;102040.61;;;5.11;63.93
50632;BME280;49583;45.590;-122.498;2023-02-17T10:33:24;102040.95;;;5.11;64.02
50632;BME280;49583;45.590;-122.498;2023-02-17T10:35:50;102040.88;;;5.12;63.68
50632;BME280;49583;45.590;-122.498;2023-02-17T10:38:10;102042.81;;;5.14;63.79
50632;BME280;49583;45.590;-122.498;2023-02-17T10:40:28;102045.31;;;5.14;63.69
50632;BME280;49583;45.590;-122.498;2023-02-17T10:42:42;102052.86;;;5.14;63.81
50632;BME280;49583;45.590;-122.498;2023-02-17T10:44:57;102057.42;;;5.14;63.79
50632;BME280;49583;45.590;-122.498;2023-02-17T10:47:12;102055.38;;;5.13;63.82
50632;BME280;49583;45.590;-122.498;2023-02-17T10:49:31;102060.58;;;5.15;63.99
50632;BME280;49583;45.590;-122.498;2023-02-17T10:51:45;102071.55;;;5.15;63.87
50632;BME280;49583;45.590;-122.498;2023-02-17T10:54:01;102074.95;;;5.15;63.88
50632;BME280;49583;45.590;-122.498;2023-02-17T10:56:18;102081.42;;;5.16;63.74
50632;BME280;49583;45.590;-122.498;2023-02-17T10:58:42;102075.39;;;5.16;63.75
50632;BME280;49583;45.590;-122.498;2023-02-17T11:01:01;102060.69;;;5.14;63.72
50632;BME280;49583;45.590;-122.498;2023-02-17T11:03:24;102054.52;;;5.11;63.78
50632;BME280;49583;45.590;-122.498;2023-02-17T11:05:40;102055.93;;;5.07;63.86
50632;BME280;49583;45.590;-122.498;2023-02-17T11:07:56;102064.91;;;5.05;63.57
50632;BME280;49583;45.590;-122.498;2023-02-17T11:10:26;102065.34;;;5.04;63.89
50632;BME280;49583;45.590;-122.498;2023-02-17T11:12:42;102063.06;;;5.05;63.77
50632;BME280;49583;45.590;-122.498;2023-02-17T11:14:56;102059.80;;;5.07;64.05
50632;BME280;49583;45.590;-122.498;2023-02-17T11:17:19;102062.83;;;5.08;63.90
50632;BME280;49583;45.590;-122.498;2023-02-17T11:19:36;102063.73;;;5.09;64.00
50632;BME280;49583;45.590;-122.498;2023-02-17T11:21:50;102064.88;;;5.09;64.22
50632;BME280;49583;45.590;-122.498;2023-02-17T11:24:04;102064.19;;;5.08;64.15
50632;BME280;49583;45.590;-122.498;2023-02-17T11:26:24;102067.00;;;5.09;64.05
50632;BME280;49583;45.590;-122.498;2023-02-17T11:28:39;102065.53;;;5.09;64.43
50632;BME280;49583;45.590;-122.498;2023-02-17T11:30:54;102064.23;;;5.08;64.11
50632;BME280;49583;45.590;-122.498;2023-02-17T11:33:21;102061.86;;;5.06;64.30
50632;BME280;49583;45.590;-122.498;2023-02-17T11:35:50;102064.14;;;5.01;64.07
50632;BME280;49583;45.590;-122.498;2023-02-17T11:38:09;102059.12;;;4.98;63.90